Cherrylog, Georgia
Current Conditions -  °F | °C
As of 1:35 PM on Thursday 30 Oct 2014 (Local Time) from KDNN Reporting Station
Clear Clear  
Wind Chill: 61°   Ceiling: Unl
Heat Index: 61°   Visibility: 10mi
Dew Point: 39°   Wind: 3mph
Humidity: 45%   Direction: 350°N
Pressure: 30.07"   Gusts: 9mph
Location:  34.78°N, 84.39°W
Report Text: KDNN 301735Z AUTO 35003G08KT 10SM CLR 16/04 A3007 RMK AO2
Loading
Personal Weather Stations






























Interactive Weather Map
Tropical Storm Tracking
New forecast layout! Learn more

10-Day Weather Forecast

Advertisements
Track Severe Weather on mobile